McKean County Weather on FaceBook
Current Metar reports for airports in our Region

Nearby METAR Reports

Metar reports are mainly used by pilots for information on what is happening at their destination during their pre-flight weather briefings and by meteorologists to assist in short term forecasts. A raw Metar is one of the most universal ways to communicate weather information in the world and are usually transmitted by airports, but some come from permanent sanctioned weather observatories.

Listed below are Metars from airports within 100 miles of our station here in Smethport Pa. The first one of course is the Bradford Regional Airport, then the Olean NY airport and so on. Each airport has it's own table to display it's data and at the bottom of the table is 'Raw' Metar for each airport. Most pilots and weather forecasters can look at the raw data and tell you what is up, but we use a script that handles all of the details for us.

KBFD - Bradford, Pennsylvania, USA
Distance from station: NW 7mi, 11km
Updated: Sun, 26-May-2019 3:14pm EDT
Mostly Cloudy
Mostly Cloudy
 Wind from W
Wind: W 7 mph , 11 km/h
Temperature: 72°F , 22°C
Dew Point: 63°F , 17°C
Humidity: 73%
Barometer: 30.01 inHg , 1016.3 hPa
Clouds: Mostly Cloudy
Visibility: 10 miles , 16 km
Cloud details: Partly Cloudy 2500 ft
Mostly Cloudy 3600 ft
Mostly Cloudy 10000 ft
2019/05/26 19:14 KBFD 261914Z AUTO 26006KT 10SM SCT025 BKN036 BKN100 22/17 A3001 RMK AO2 T02220172
KOLE - Olean, New York, USA
Distance from station: NNE 37mi, 59km
Updated: Sun, 26-May-2019 3:35pm EDT
Clear
Clear
 Wind from NW
Wind: NW 13 mph , 20 km/h, Gust: 18 mph , 30 km/h
Temperature: 70°F , 21°C
Dew Point: 55°F , 13°C
Humidity: 60%
Barometer: 30.00 inHg , 1015.9 hPa
Clouds: Clear
Visibility: 10 miles , 16 km
2019/05/26 19:35 KOLE 261935Z AUTO 31011G16KT 10SM CLR 21/13 A3000 RMK AO2
 
KELZ - Wellsville, New York, USA
Distance from station: NE 40mi, 64km
Updated: Sun, 26-May-2019 2:56pm EDT
Clear
Clear
 Wind from WSW
Wind: WSW 7 mph , 11 km/h
Temperature: 70°F , 21°C
Dew Point: 66°F , 19°C
Humidity: 88%
Barometer: 30.00 inHg , 1015.9 hPa
Clouds: Clear
Visibility: 10 miles , 16 km
2019/05/26 18:56 KELZ 261856Z AUTO 24006KT 10SM CLR 21/19 A3000 RMK AO2 SLP149 T02110189
KDUJ - Du Bois, Pennsylvania, USA
Distance from station: SSW 42mi, 68km
Updated: Sun, 26-May-2019 2:53pm EDT
Mostly Cloudy
Mostly Cloudy
 Wind from WSW
Wind: WSW 13 mph , 20 km/h
Temperature: 73°F , 23°C
Dew Point: 64°F , 18°C
Humidity: 74%
Barometer: 30.01 inHg , 1016.3 hPa
Clouds: Mostly Cloudy
Visibility: 10 miles , 16 km
Cloud details: Few Clouds 2000 ft
Partly Cloudy 9000 ft
Mostly Cloudy 11000 ft
2019/05/26 18:53 KDUJ 261853Z AUTO 25011KT 10SM FEW020 SCT090 BKN110 23/18 A3001 RMK AO2 SLP152 T02330183
 
KJHW - Jamestown, New York, USA
Distance from station: NW 46mi, 75km
Updated: Sun, 26-May-2019 2:56pm EDT
Partly Cloudy
Partly Cloudy
 Wind from WNW
Wind: WNW 14 mph , 22 km/h, Gust: 17 mph , 28 km/h
Temperature: 73°F , 23°C
Dew Point: 61°F , 16°C
Humidity: 65%
Barometer: 30.00 inHg , 1015.9 hPa
Clouds: Partly Cloudy
Visibility: 10 miles , 16 km
Cloud details: Few Clouds 3200 ft
Partly Cloudy 8000 ft
2019/05/26 18:56 KJHW 261856Z AUTO 30012G15KT 260V320 10SM FEW032 SCT080 23/16 A3000 RMK AO2 SLP156 T02280161
KFIG - Clearfield, Pennsylvania, USA
Distance from station: S 47mi, 75km
Updated: Sun, 26-May-2019 2:54pm EDT
Overcast
Overcast
 Wind from WNW
Wind: WNW 9 mph , 15 km/h, Gust: 20 mph , 31 km/h
Temperature: 75°F , 24°C
Dew Point: 63°F , 17°C
Humidity: 65%
Barometer: 30.00 inHg , 1015.9 hPa
Clouds: Overcast
Visibility: 10 miles , 16 km
Cloud details: Few Clouds 3100 ft
Mostly Cloudy 6500 ft
Overcast 11000 ft
2019/05/26 18:54 KFIG 261854Z AUTO 30008G17KT 10SM FEW031 BKN065 OVC110 24/17 A3000 RMK AO2 SLP151 T02390172
 
KDKK - Dunkirk, New York, USA
Distance from station: NW 66mi, 106km
Updated: Sun, 26-May-2019 2:53pm EDT
Mostly Cloudy
Mostly Cloudy
 Wind from SW
Wind: SW 10 mph , 17 km/h
Temperature: 70°F , 21°C
Dew Point: 61°F , 16°C
Humidity: 73%
Barometer: 29.98 inHg , 1015.2 hPa
Clouds: Mostly Cloudy
Visibility: 10 miles , 16 km
Cloud details: Mostly Cloudy 7500 ft
2019/05/26 18:53 KDKK 261853Z AUTO 22009KT 10SM BKN075 21/16 A2998 RMK AO2 SLP150 T02060161
KUNV - State College, Pennsylvania, USA
Distance from station: SSE 71mi, 114km
Updated: Sun, 26-May-2019 2:53pm EDT
Light rain, Mostly cloudy
Light rain, Mostly cloudy
 Wind from NW
Wind: NW 10 mph , 17 km/h
Temperature: 70°F , 21°C
Dew Point: 66°F , 19°C
Humidity: 88%
Barometer: 30.00 inHg , 1015.9 hPa
Summary: Light Rain
Clouds: Mostly Cloudy
Visibility: 5 miles , 8 km
Cloud details: Partly Cloudy 800 ft
Mostly Cloudy 3000 ft
2019/05/26 18:53 KUNV 261853Z 31009KT 5SM -RA SCT008 BKN030 21/19 A3000
 
KFKL - Franklin, Pennsylvania, USA
Distance from station: WSW 72mi, 116km
Updated: Sun, 26-May-2019 2:56pm EDT
Partly Cloudy
Partly Cloudy
 Wind from WNW
Wind: WNW 9 mph , 15 km/h
Temperature: 73°F , 23°C
Dew Point: 64°F , 18°C
Humidity: 74%
Barometer: 30.02 inHg , 1016.6 hPa
Clouds: Partly Cloudy
Visibility: 10 miles , 16 km
Cloud details: Few Clouds 2600 ft
Partly Cloudy 11000 ft
2019/05/26 18:56 KFKL 261856Z AUTO 29008KT 10SM FEW026 SCT110 23/18 A3002 RMK AO2 RAE06 SLP159 P0000 T02330178
KDSV - Dansville, New York, USA
Distance from station: NE 73mi, 117km
Updated: Sun, 26-May-2019 2:54pm EDT
Clear
Clear
 Wind from NW
Wind: NW 13 mph , 20 km/h, Gust: 21 mph , 33 km/h
Temperature: 79°F , 26°C
Dew Point: 55°F , 13°C
Humidity: 45%
Barometer: 29.93 inHg , 1013.5 hPa
Clouds: Clear
Visibility: 10 miles , 16 km
2019/05/26 18:54 KDSV 261854Z AUTO 31011G18KT 10SM CLR 26/13 A2993 RMK AO2 SLP139 T02610128 $
 
KIDI - Indiana/Stewart, Pennsylvania, USA
Distance from station: SSW 81mi, 130km
Updated: Sun, 26-May-2019 3:35pm EDT
Partly Cloudy
Partly Cloudy
 Wind from WNW
Wind: WNW 7 mph , 11 km/h, Gust: 14 mph , 22 km/h
Temperature: 77°F , 25°C
Dew Point: 64°F , 18°C
Humidity: 65%
Barometer: 30.05 inHg , 1017.6 hPa
Clouds: Partly Cloudy
Visibility: 10 miles , 16 km
Cloud details: Partly Cloudy 9500 ft
Partly Cloudy 12000 ft
2019/05/26 19:35 KIDI 261935Z AUTO 29006G12KT 10SM SCT095 SCT120 25/18 A3005 RMK A01
KBUF - Buffalo/Cheektow, New York, USA
Distance from station: N 84mi, 136km
Updated: Sun, 26-May-2019 2:54pm EDT
Mostly Cloudy
Mostly Cloudy
 Wind from WSW
Wind: WSW 14 mph , 22 km/h
Temperature: 70°F , 21°C
Dew Point: 61°F , 16°C
Humidity: 73%
Barometer: 29.96 inHg , 1014.6 hPa
Clouds: Mostly Cloudy
Visibility: 10 miles , 16 km
Cloud details: Few Clouds 3000 ft
Few Clouds 10000 ft
Partly Cloudy 16000 ft
Mostly Cloudy 21000 ft
Mostly Cloudy 27000 ft
2019/05/26 18:54 KBUF 261854Z 24012KT 10SM FEW030 FEW100 SCT160 BKN210 BKN270 21/16 A2996 RMK AO2 SLP143 T02110156
 
KGKJ - Meadville, Pennsylvania, USA
Distance from station: W 86mi, 138km
Updated: Sun, 26-May-2019 2:53pm EDT
Light rain, Mostly cloudy
Light rain, Mostly cloudy
 Wind from W
Wind: W 8 mph , 13 km/h
Temperature: 73°F , 23°C
Dew Point: 61°F , 16°C
Humidity: 65%
Barometer: 30.01 inHg , 1016.3 hPa
Summary: Light Rain
Clouds: Mostly Cloudy
Visibility: 10 miles , 16 km
Cloud details: Few Clouds 9500 ft
Mostly Cloudy 12000 ft
2019/05/26 18:53 KGKJ 261853Z AUTO 27007KT 10SM -RA FEW095 BKN120 23/16 A3001 RMK AO2 RAB53 SLP155 P0000 T02280161 TSNO
KERI - Erie, Pennsylvania, USA
Distance from station: WNW 87mi, 140km
Updated: Sun, 26-May-2019 3:09pm EDT
Mostly Cloudy
Mostly Cloudy
 Wind from WSW
Wind: WSW 6 mph , 9 km/h
Temperature: 68°F , 20°C
Dew Point: 63°F , 17°C
Humidity: 83%
Barometer: 30.00 inHg , 1015.9 hPa
Clouds: Mostly Cloudy
Visibility: 7 miles , 11 km
Cloud details: Partly Cloudy 200 ft
Mostly Cloudy 9500 ft
2019/05/26 19:09 KERI 261909Z 24005KT 7SM SCT002 BKN095 20/17 A3000 RMK AO2 T02000167
 
KELM - Elmira, New York, USA
Distance from station: ENE 90mi, 145km
Updated: Sun, 26-May-2019 2:53pm EDT
Partly Cloudy
Partly Cloudy
 Wind from SW
Wind: SW 8 mph , 13 km/h
Temperature: 72°F , 22°C
Dew Point: 63°F , 17°C
Humidity: 73%
Barometer: 29.91 inHg , 1012.9 hPa
Clouds: Partly Cloudy
Visibility: 10 miles , 16 km
Cloud details: Few Clouds 4600 ft
Few Clouds 9000 ft
Partly Cloudy 11000 ft
2019/05/26 18:53 KELM 261853Z 23007KT 10SM FEW046 FEW090 SCT110 22/17 A2991 RMK AO2 RAB13E45 SLP125 P0000 T02220167
KIPT - Williamsport, Pennsylvania, USA
Distance from station: ESE 91mi, 146km
Updated: Sun, 26-May-2019 3:15pm EDT
Light rain, Overcast
Light rain, Overcast
 Wind from W
Wind: W 10 mph , 17 km/h
Temperature: 72°F , 22°C
Dew Point: 66°F , 19°C
Humidity: 83%
Barometer: 29.95 inHg , 1014.2 hPa
Summary: Light Rain
Clouds: Overcast
Visibility: 10 miles , 16 km
Cloud details: Few Clouds 4500 ft
Mostly Cloudy 8000 ft
Overcast 10000 ft
2019/05/26 19:15 KIPT 261915Z 26009KT 10SM -RA FEW045 BKN080 OVC100 22/19 A2995 RMK AO2 LTG DSNT N AND NE P0001 T02170189 $
 
KBTP - Butler Co., Pennsylvania, USA
Distance from station: SW 98mi, 157km
Updated: Sun, 26-May-2019 2:56pm EDT
Light rain, Overcast
Light rain, Overcast
 Wind from W
Wind: W 5 mph , 7 km/h
Temperature: 73°F , 23°C
Dew Point: 64°F , 18°C
Humidity: 74%
Barometer: 30.02 inHg , 1016.6 hPa
Summary: Light Rain
Clouds: Overcast
Visibility: 10 miles , 16 km
Cloud details: Few Clouds 2700 ft
Mostly Cloudy 6500 ft
Overcast 9500 ft
2019/05/26 18:56 KBTP 261856Z AUTO 27004KT 10SM -RA FEW027 BKN065 OVC095 23/18 A3002 RMK AO2 RAB47 SLP164 P0000 T02280183
KAOO - Altoona, Pennsylvania, USA
Distance from station: S 99mi, 159km
Updated: Sun, 26-May-2019 2:53pm EDT
Partly Cloudy
Partly Cloudy
 Wind from W
Wind: W 13 mph , 20 km/h
Temperature: 79°F , 26°C
Dew Point: 64°F , 18°C
Humidity: 61%
Barometer: 30.02 inHg , 1016.6 hPa
Clouds: Partly Cloudy
Visibility: 10 miles , 16 km
Cloud details: Few Clouds 3500 ft
Few Clouds 4300 ft
Partly Cloudy 12000 ft
2019/05/26 18:53 KAOO 261853Z AUTO 28011KT 10SM FEW035 FEW043 SCT120 26/18 A3002 RMK AO2 SLP157 T02560178
 
KPIT - Pittsburg, Pennsylvania, USA
Distance from station: SSW 126mi, 203km
Updated: Sun, 26-May-2019 2:51pm EDT
Mostly Cloudy
Mostly Cloudy
 Wind from W
Wind: W 7 mph , 11 km/h
Temperature: 77°F , 25°C
Dew Point: 63°F , 17°C
Humidity: 61%
Barometer: 30.00 inHg , 1015.9 hPa
Clouds: Mostly Cloudy
Visibility: 10 miles , 16 km
Cloud details: Few Clouds 2600 ft
Partly Cloudy 8500 ft
Mostly Cloudy 11000 ft
Mostly Cloudy 23000 ft
2019/05/26 18:51 KPIT 261851Z 28006KT 10SM FEW026 SCT085 BKN110 BKN230 25/17 A3000 RMK AO2 SLP159 T02500172
KCLE - Cleveland, Ohio, USA
Distance from station: WSW 160mi, 258km
Updated: Sun, 26-May-2019 2:51pm EDT
Light rain, Overcast
Light rain, Overcast
 Wind from WNW
Wind: WNW 8 mph , 13 km/h
Temperature: 72°F , 22°C
Dew Point: 68°F , 20°C
Humidity: 88%
Barometer: 30.04 inHg , 1017.3 hPa
Summary: Light Rain
Clouds: Overcast
Visibility: 9 miles , 14 km
Cloud details: Few Clouds 7500 ft
Partly Cloudy 10000 ft
Overcast 11000 ft
2019/05/26 18:51 KCLE 261851Z 29007KT 9SM -RA FEW075 SCT100 OVC110 22/20 A3004 RMK AO2 RAB02 SLP170 P0004 T02220200